This is the latest recevied weather packets stored in our database for station/object DG4MND-4. If no packets are shown the sender has not sent any weather packets the latest 10 day(s).
| Time | Temp. | Humidity | Pressure | Rain* | Wind** | Luminosity | Snow |
|---|---|---|---|---|---|---|---|
| 1777188060 | 12.78° C | 48% | 1021.9 hPa | 0 mm | - | - | - |
| 1777187460 | 12.22° C | 50% | 1021.8 hPa | 0 mm | - | - | - |
| 1777185650 | 11.11° C | 55% | 1021.8 hPa | 0 mm | - | - | - |
| 1777184440 | 11.67° C | 59% | 1021.7 hPa | 0 mm | - | - | - |
| 1777182026 | 6.11° C | 82% | 1021.8 hPa | 0 mm | - | - | - |
| 1777181425 | 3.89° C | 93% | 1021.5 hPa | 0 mm | - | - | - |
| 1777180822 | 2.78° C | 95% | 1021.3 hPa | 0 mm | - | - | - |
| 1777180219 | 2.22° C | 95% | 1021.2 hPa | 0 mm | - | - | - |
| 1777179676 | 1.67° C | 96% | 1021.2 hPa | 0 mm | - | - | - |
| 1777179069 | 1.67° C | 96% | 1021 hPa | 0 mm | - | - | - |
| 1777178466 | 1.67° C | 96% | 1021 hPa | 0 mm | - | - | - |
| 1777177259 | 1.67° C | 96% | 1020.7 hPa | 0 mm | - | - | - |
| 1777176661 | 1.67° C | 96% | 1020.7 hPa | 0 mm | - | - | - |
| 1777176052 | 1.67° C | 95% | 1020.7 hPa | 0 mm | - | - | - |
| 1777175457 | 1.67° C | 95% | 1020.6 hPa | 0 mm | - | - | - |
| 1777174845 | 1.67° C | 94% | 1020.5 hPa | 0 mm | - | - | - |
| 1777174242 | 1.67° C | 94% | 1020.3 hPa | 0 mm | - | - | - |
| 1777173638 | 2.22° C | 94% | 1020.5 hPa | 0 mm | - | - | - |
| 1777173038 | 2.22° C | 94% | 1020.5 hPa | 0 mm | - | - | - |
| 1777172435 | 2.22° C | 94% | 1020.4 hPa | 0 mm | - | - | - |
| 1777171225 | 2.22° C | 94% | 1020.2 hPa | 0 mm | - | - | - |
| 1777170624 | 2.22° C | 93% | 1020.1 hPa | 0 mm | - | - | - |
| 1777170018 | 2.78° C | 92% | 1020 hPa | 0 mm | - | - | - |
| 1777169475 | 2.78° C | 92% | 1019.8 hPa | 0 mm | - | - | - |
| 1777168874 | 2.78° C | 92% | 1019.8 hPa | 0 mm | - | - | - |
* Rain latest hour (hover to see other rain measurements)
** Current wind speed in m/s (hover to see current wind gust speed)